createdAt,value
2022-09-15T00:00:42.873Z,32.41
2022-09-15T00:02:10.969Z,32.19
2022-09-15T00:03:17.616Z,32.14
2022-09-15T00:04:24.730Z,32.19
2022-09-15T00:05:31.447Z,32.18
2022-09-15T00:06:38.763Z,32.13
2022-09-15T00:07:45.415Z,32.08
2022-09-15T00:08:51.584Z,31.99
2022-09-15T00:09:58.621Z,31.93
2022-09-15T00:11:10.688Z,31.84
2022-09-15T00:12:21.073Z,31.63
2022-09-15T00:13:28.135Z,31.44
2022-09-15T00:14:35.548Z,31.27
2022-09-15T00:15:42.593Z,31.51
2022-09-15T00:16:49.531Z,31.45
2022-09-15T00:17:56.413Z,31.35
2022-09-15T00:19:02.988Z,31.39
2022-09-15T00:20:10.745Z,31.35
2022-09-15T00:21:19.186Z,31.24
2022-09-15T00:22:26.275Z,31.31
2022-09-15T00:23:31.860Z,31.40
2022-09-15T00:24:37.893Z,31.42
2022-09-15T00:25:48.553Z,31.31
2022-09-15T00:26:54.642Z,31.02
2022-09-15T00:28:00.503Z,30.98
2022-09-15T00:29:06.324Z,30.95
2022-09-15T00:30:12.656Z,30.79
2022-09-15T00:31:22.904Z,30.65
2022-09-15T00:32:29.159Z,30.58
2022-09-15T00:33:34.924Z,30.44
2022-09-15T00:34:41.153Z,30.47
2022-09-15T00:35:49.418Z,30.38
2022-09-15T00:36:56.718Z,30.42
2022-09-15T00:38:03.950Z,30.36
2022-09-15T00:39:14.075Z,30.32
2022-09-15T00:40:20.135Z,30.31
2022-09-15T00:41:26.062Z,30.23
2022-09-15T00:42:33.188Z,30.07
2022-09-15T00:44:07.814Z,30.01
2022-09-15T00:45:18.460Z,29.94
2022-09-15T00:46:28.175Z,29.75
2022-09-15T00:47:37.646Z,29.64
2022-09-15T00:48:49.807Z,29.58
2022-09-15T00:49:59.505Z,29.60
2022-09-15T00:51:08.126Z,29.59
2022-09-15T00:52:22.697Z,29.44
2022-09-15T00:53:29.780Z,29.14
2022-09-15T00:54:57.581Z,29.20
2022-09-15T00:56:04.575Z,29.10
2022-09-15T00:57:17.169Z,29.01
2022-09-15T00:58:27.541Z,28.96
2022-09-15T00:59:36.597Z,28.84
2022-09-15T01:00:49.891Z,28.73
2022-09-15T01:02:07.026Z,28.62
2022-09-15T01:03:17.167Z,28.58
2022-09-15T01:04:27.562Z,28.52
2022-09-15T01:05:41.752Z,28.54
2022-09-15T01:06:53.990Z,28.37
2022-09-15T01:08:33.256Z,28.30
2022-09-15T01:09:47.063Z,28.10
2022-09-15T01:10:53.899Z,27.95
2022-09-15T01:12:00.802Z,27.72
2022-09-15T01:13:10.136Z,27.51
2022-09-15T01:14:16.961Z,27.30
2022-09-15T01:15:26.127Z,27.11
2022-09-15T01:17:08.694Z,26.83
2022-09-15T01:18:22.304Z,26.42
2022-09-15T01:19:53.664Z,26.12
2022-09-15T01:21:15.824Z,25.83
2022-09-15T01:22:50.542Z,25.60
2022-09-15T01:24:06.391Z,25.35
2022-09-15T01:25:22.154Z,25.16
2022-09-15T01:26:59.748Z,24.98
2022-09-15T01:28:21.287Z,24.79
2022-09-15T01:29:53.227Z,24.63
2022-09-15T01:31:28.979Z,24.50
2022-09-15T01:33:07.283Z,24.36
2022-09-15T01:34:24.645Z,24.24
2022-09-15T01:35:38.032Z,24.15
2022-09-15T01:36:48.660Z,24.08
2022-09-15T01:38:00.683Z,24.02
2022-09-15T01:39:19.961Z,23.97
2022-09-15T01:40:30.847Z,23.88
2022-09-15T01:41:37.237Z,23.82
2022-09-15T01:42:44.506Z,23.77
2022-09-15T01:43:55.659Z,23.73
2022-09-15T01:45:05.383Z,23.68
2022-09-15T01:46:11.334Z,23.63
2022-09-15T01:47:19.180Z,23.57
2022-09-15T01:48:27.479Z,23.51
2022-09-15T01:50:03.721Z,23.46
2022-09-15T01:51:10.204Z,23.41
2022-09-15T01:52:17.732Z,23.36
2022-09-15T01:53:24.119Z,23.31
2022-09-15T01:54:33.564Z,23.26
2022-09-15T01:55:54.316Z,23.21
2022-09-15T01:57:00.240Z,23.15
2022-09-15T01:58:06.009Z,23.11
2022-09-15T01:59:11.746Z,23.06
2022-09-15T02:00:17.649Z,23.01
2022-09-15T02:01:41.656Z,22.98
2022-09-15T02:02:56.499Z,22.92
2022-09-15T02:04:19.534Z,22.87
2022-09-15T02:05:34.270Z,22.82
2022-09-15T02:07:02.538Z,22.77
2022-09-15T02:08:15.868Z,22.72
2022-09-15T02:09:30.896Z,22.68
2022-09-15T02:10:42.700Z,22.65
2022-09-15T02:12:25.680Z,22.62
2022-09-15T02:13:58.519Z,22.56
2022-09-15T02:15:09.863Z,22.50
2022-09-15T02:16:21.104Z,22.47
2022-09-15T02:17:29.971Z,22.44
2022-09-15T02:18:46.446Z,22.42
2022-09-15T02:19:54.999Z,22.37
2022-09-15T02:21:18.661Z,22.35
2022-09-15T02:22:28.776Z,22.30
2022-09-15T02:23:39.857Z,22.25
2022-09-15T02:24:50.483Z,22.21
2022-09-15T02:26:06.064Z,22.17
2022-09-15T02:27:16.688Z,22.12
2022-09-15T02:28:25.791Z,22.08
2022-09-15T02:29:33.356Z,22.06
2022-09-15T02:30:44.271Z,22.03
2022-09-15T02:31:53.842Z,22.00
2022-09-15T02:33:03.997Z,21.95
2022-09-15T02:34:23.613Z,21.91
2022-09-15T02:35:30.844Z,21.87
2022-09-15T02:36:37.926Z,21.84
2022-09-15T02:37:45.091Z,21.81
2022-09-15T02:38:55.501Z,21.78
2022-09-15T02:40:02.703Z,21.75
2022-09-15T02:41:09.390Z,21.71
2022-09-15T02:42:25.674Z,21.67
2022-09-15T02:43:33.489Z,21.63
2022-09-15T02:44:40.418Z,21.61
2022-09-15T02:45:49.579Z,21.59
2022-09-15T02:46:56.514Z,21.58
2022-09-15T02:48:07.120Z,21.57
2022-09-15T02:49:13.946Z,21.56
2022-09-15T02:50:21.500Z,21.58
2022-09-15T02:51:28.605Z,21.56
2022-09-15T02:52:35.271Z,21.53
2022-09-15T02:53:51.028Z,21.49
2022-09-15T02:54:57.367Z,21.47
2022-09-15T02:56:09.580Z,21.46
2022-09-15T02:57:24.645Z,21.44
2022-09-15T02:58:32.613Z,21.41
2022-09-15T03:00:01.281Z,21.40
2022-09-15T03:01:09.841Z,21.39
2022-09-15T03:02:17.253Z,21.37
2022-09-15T03:03:24.203Z,21.36
2022-09-15T03:04:31.648Z,21.35
2022-09-15T03:05:38.481Z,21.31
2022-09-15T03:06:45.681Z,21.27
2022-09-15T03:07:52.315Z,21.24
2022-09-15T03:09:00.034Z,21.22
2022-09-15T03:10:07.480Z,21.17
2022-09-15T03:11:14.196Z,21.15
2022-09-15T03:12:21.729Z,21.12
2022-09-15T03:13:29.629Z,21.09
2022-09-15T03:14:36.523Z,21.06
2022-09-15T03:15:44.030Z,21.04
2022-09-15T03:16:50.360Z,21.00
2022-09-15T03:17:57.706Z,20.97
2022-09-15T03:19:07.152Z,20.94
2022-09-15T03:20:14.773Z,20.92
2022-09-15T03:21:21.628Z,20.89
2022-09-15T03:22:29.409Z,20.86
2022-09-15T03:23:36.509Z,20.84
2022-09-15T03:24:43.631Z,20.81
2022-09-15T03:25:49.933Z,20.77
2022-09-15T03:26:56.200Z,20.74
2022-09-15T03:28:03.670Z,20.71
2022-09-15T03:29:11.231Z,20.68
2022-09-15T03:30:18.311Z,20.67
2022-09-15T03:31:25.682Z,20.64
2022-09-15T03:32:33.354Z,20.63
2022-09-15T03:33:40.979Z,20.62
2022-09-15T03:34:47.342Z,20.61
2022-09-15T03:35:53.590Z,20.58
2022-09-15T03:37:00.260Z,20.56
2022-09-15T03:38:07.693Z,20.52
2022-09-15T03:39:14.549Z,20.49
2022-09-15T03:40:21.789Z,20.48
2022-09-15T03:41:28.997Z,20.44
2022-09-15T03:42:36.711Z,20.43
2022-09-15T03:43:43.475Z,20.42
2022-09-15T03:44:50.771Z,20.41
2022-09-15T03:45:57.055Z,20.39
2022-09-15T03:47:05.118Z,20.38
2022-09-15T03:48:11.962Z,20.38
2022-09-15T03:49:19.365Z,20.37
2022-09-15T03:50:27.520Z,20.35
2022-09-15T03:51:34.714Z,20.32
2022-09-15T03:52:41.319Z,20.31
2022-09-15T03:53:48.228Z,20.29
2022-09-15T03:54:54.178Z,20.26
2022-09-15T03:56:20.627Z,20.25
2022-09-15T03:57:28.660Z,20.24
2022-09-15T03:58:35.486Z,20.22
2022-09-15T03:59:41.927Z,20.20
2022-09-15T04:00:48.299Z,20.18
2022-09-15T04:01:56.577Z,20.16
2022-09-15T04:03:06.187Z,20.14
2022-09-15T04:04:15.114Z,20.13
2022-09-15T04:05:21.427Z,20.11
2022-09-15T04:06:28.545Z,20.10
2022-09-15T04:07:35.663Z,20.07
2022-09-15T04:08:43.135Z,20.06
2022-09-15T04:09:49.942Z,20.04
2022-09-15T04:10:57.017Z,20.02
2022-09-15T04:12:05.887Z,20.00
2022-09-15T04:13:12.260Z,19.99
2022-09-15T04:14:19.617Z,19.99
2022-09-15T04:15:27.262Z,19.97
2022-09-15T04:16:35.143Z,19.95
2022-09-15T04:17:41.479Z,19.92
2022-09-15T04:18:47.829Z,19.90
2022-09-15T04:19:53.962Z,19.88
2022-09-15T04:21:04.177Z,19.87
2022-09-15T04:22:14.272Z,19.85
2022-09-15T04:23:24.721Z,19.83
2022-09-15T04:24:31.749Z,19.83
2022-09-15T04:25:38.936Z,19.82
2022-09-15T04:26:46.136Z,19.80
2022-09-15T04:27:52.093Z,19.79
2022-09-15T04:29:03.063Z,19.77
2022-09-15T04:30:11.522Z,19.76
2022-09-15T04:31:18.863Z,19.74
2022-09-15T04:32:26.313Z,19.74
2022-09-15T04:33:33.439Z,19.73
2022-09-15T04:34:41.576Z,19.73
2022-09-15T04:35:49.143Z,19.73
2022-09-15T04:36:55.533Z,19.73
2022-09-15T04:38:01.889Z,19.74
2022-09-15T04:39:08.180Z,19.73
2022-09-15T04:40:15.512Z,19.72
2022-09-15T04:41:22.736Z,19.71
2022-09-15T04:42:30.200Z,19.70
2022-09-15T04:43:36.940Z,19.69
2022-09-15T04:44:44.102Z,19.67
2022-09-15T04:45:53.690Z,19.64
2022-09-15T04:47:01.068Z,19.65
2022-09-15T04:48:07.796Z,19.64
2022-09-15T04:49:14.478Z,19.62
2022-09-15T04:50:21.620Z,19.62
2022-09-15T04:51:43.541Z,19.61
2022-09-15T04:52:49.954Z,19.60
2022-09-15T04:53:56.201Z,19.58
2022-09-15T04:55:02.828Z,19.57
2022-09-15T04:56:11.044Z,19.54
2022-09-15T04:57:18.270Z,19.52
2022-09-15T04:58:25.426Z,19.49
2022-09-15T04:59:32.878Z,19.51
2022-09-15T05:00:47.117Z,19.51
2022-09-15T05:01:56.677Z,19.49
2022-09-15T05:03:03.975Z,19.47
2022-09-15T05:04:10.846Z,19.47
2022-09-15T05:05:17.777Z,19.48
2022-09-15T05:06:26.570Z,19.46
2022-09-15T05:07:33.778Z,19.45
2022-09-15T05:08:40.421Z,19.44
2022-09-15T05:09:47.426Z,19.42
2022-09-15T05:10:53.894Z,19.41
2022-09-15T05:12:00.920Z,19.40
2022-09-15T05:13:07.630Z,19.40
2022-09-15T05:14:14.452Z,19.38
2022-09-15T05:15:21.824Z,19.36
2022-09-15T05:16:30.699Z,19.34
2022-09-15T05:17:37.597Z,19.33
2022-09-15T05:18:46.610Z,19.31
2022-09-15T05:19:53.633Z,19.30
2022-09-15T05:21:03.814Z,19.28
2022-09-15T05:22:10.913Z,19.27
2022-09-15T05:23:20.474Z,19.24
2022-09-15T05:24:27.838Z,19.23
2022-09-15T05:25:35.327Z,19.23
2022-09-15T05:26:42.835Z,19.22
2022-09-15T05:27:50.453Z,19.22
2022-09-15T05:28:58.428Z,19.23
2022-09-15T05:30:34.901Z,19.24
2022-09-15T05:31:32.809Z,19.22
2022-09-15T05:32:44.075Z,19.21
2022-09-15T05:33:50.979Z,19.20
2022-09-15T05:34:57.520Z,19.20
2022-09-15T05:36:05.090Z,19.20
2022-09-15T05:37:12.083Z,19.20
2022-09-15T05:38:19.086Z,19.21
2022-09-15T05:39:26.247Z,19.19
2022-09-15T05:40:34.135Z,19.19
2022-09-15T05:41:42.467Z,19.19
2022-09-15T05:42:50.053Z,19.19
2022-09-15T05:43:57.800Z,19.18
2022-09-15T05:45:10.071Z,19.18
2022-09-15T05:46:17.058Z,19.17
2022-09-15T05:47:24.112Z,19.15
2022-09-15T05:48:31.371Z,19.13
2022-09-15T05:49:38.368Z,19.13
2022-09-15T05:50:50.484Z,19.13
2022-09-15T05:51:56.551Z,19.12
2022-09-15T05:53:03.767Z,19.09
2022-09-15T05:54:10.632Z,19.08
2022-09-15T05:55:17.356Z,19.07
2022-09-15T05:56:24.990Z,19.07
2022-09-15T05:57:33.220Z,19.06
2022-09-15T05:58:41.871Z,19.06
2022-09-15T05:59:48.541Z,19.05
2022-09-15T06:00:55.714Z,19.05
2022-09-15T06:02:02.588Z,19.05
2022-09-15T06:03:12.254Z,19.04
2022-09-15T06:04:18.956Z,19.05
2022-09-15T06:05:25.595Z,19.06
2022-09-15T06:06:34.078Z,19.07
2022-09-15T06:07:44.506Z,19.08
2022-09-15T06:08:57.004Z,19.11
2022-09-15T06:10:10.973Z,19.14
2022-09-15T06:11:21.609Z,19.15
2022-09-15T06:12:29.348Z,19.15
2022-09-15T06:13:35.505Z,19.16
2022-09-15T06:14:44.224Z,19.15
2022-09-15T06:15:50.781Z,19.16
2022-09-15T06:16:56.886Z,19.14
2022-09-15T06:18:03.454Z,19.13
2022-09-15T06:19:09.503Z,19.11
2022-09-15T06:20:16.836Z,19.09
2022-09-15T06:21:24.181Z,19.09
2022-09-15T06:22:30.474Z,19.08
2022-09-15T06:23:36.722Z,19.07
2022-09-15T06:24:44.193Z,19.05
2022-09-15T06:25:53.059Z,19.04
2022-09-15T06:27:03.050Z,19.01
2022-09-15T06:28:15.300Z,19.01
2022-09-15T06:29:22.801Z,19.01
2022-09-15T06:30:30.966Z,18.99
2022-09-15T06:31:37.756Z,18.97
2022-09-15T06:32:48.048Z,18.98
2022-09-15T06:33:56.508Z,18.95
2022-09-15T06:35:06.172Z,18.93
2022-09-15T06:36:18.966Z,18.91
2022-09-15T06:37:26.734Z,18.91
2022-09-15T06:38:33.852Z,18.91
2022-09-15T06:39:40.905Z,18.90
2022-09-15T06:40:55.800Z,18.89
2022-09-15T06:42:05.888Z,18.86
2022-09-15T06:43:16.633Z,18.83
2022-09-15T06:44:23.991Z,18.82
2022-09-15T06:45:32.018Z,18.82
2022-09-15T06:46:39.889Z,18.81
2022-09-15T06:48:02.042Z,18.79
2022-09-15T06:49:15.454Z,18.77
2022-09-15T06:50:22.798Z,18.76
2022-09-15T06:51:32.610Z,18.75
2022-09-15T06:52:40.031Z,18.75
2022-09-15T06:53:47.954Z,18.73
2022-09-15T06:54:54.223Z,18.73
2022-09-15T06:56:07.198Z,18.73
2022-09-15T06:57:14.333Z,18.72
2022-09-15T06:58:20.868Z,18.71
2022-09-15T06:59:28.204Z,18.72
2022-09-15T07:00:42.883Z,18.71
2022-09-15T07:01:49.198Z,18.72
2022-09-15T07:02:55.685Z,18.71
2022-09-15T07:04:03.636Z,18.73
2022-09-15T07:05:11.613Z,18.71
2022-09-15T07:06:18.414Z,18.69
2022-09-15T07:07:24.993Z,18.67
2022-09-15T07:08:32.838Z,18.66
2022-09-15T07:09:41.310Z,18.64
2022-09-15T07:10:49.657Z,18.63
2022-09-15T07:11:55.822Z,18.63
2022-09-15T07:13:02.360Z,18.62
2022-09-15T07:14:09.116Z,18.62
2022-09-15T07:15:16.528Z,18.62
2022-09-15T07:16:23.932Z,18.61
2022-09-15T07:17:31.508Z,18.61
2022-09-15T07:18:42.843Z,18.61
2022-09-15T07:19:51.169Z,18.59
2022-09-15T07:21:02.726Z,18.58
2022-09-15T07:22:09.622Z,18.58
2022-09-15T07:23:16.657Z,18.57
2022-09-15T07:24:24.223Z,18.56
2022-09-15T07:25:31.678Z,18.55
2022-09-15T07:26:37.771Z,18.52
2022-09-15T07:27:45.550Z,18.53
2022-09-15T07:29:03.366Z,18.52
2022-09-15T07:30:10.236Z,18.51
2022-09-15T07:31:18.427Z,18.49
2022-09-15T07:32:28.771Z,18.48
2022-09-15T07:33:35.955Z,18.46
2022-09-15T07:34:42.597Z,18.46
2022-09-15T07:35:50.236Z,18.46
2022-09-15T07:36:56.314Z,18.45
2022-09-15T07:38:03.720Z,18.45
2022-09-15T07:39:12.034Z,18.43
2022-09-15T07:40:19.121Z,18.42
2022-09-15T07:41:33.367Z,18.42
2022-09-15T07:42:44.127Z,18.41
2022-09-15T07:43:52.065Z,18.39
2022-09-15T07:44:59.880Z,18.41
2022-09-15T07:46:07.502Z,18.41
2022-09-15T07:47:14.310Z,18.41
2022-09-15T07:48:25.733Z,18.40
2022-09-15T07:49:33.413Z,18.40
2022-09-15T07:50:41.438Z,18.39
2022-09-15T07:51:48.616Z,18.38
2022-09-15T07:52:58.695Z,18.38
2022-09-15T07:54:05.708Z,18.40
2022-09-15T07:55:14.787Z,18.37
2022-09-15T07:56:22.564Z,18.36
2022-09-15T07:57:29.670Z,18.35
2022-09-15T07:58:37.260Z,18.33
2022-09-15T07:59:43.984Z,18.31
2022-09-15T08:00:50.553Z,18.30
2022-09-15T08:01:56.733Z,18.29
2022-09-15T08:03:03.082Z,18.28
2022-09-15T08:04:09.607Z,18.26
2022-09-15T08:05:16.434Z,18.25
2022-09-15T08:06:25.301Z,18.23
2022-09-15T08:07:32.470Z,18.22
2022-09-15T08:08:42.455Z,18.20
2022-09-15T08:09:50.604Z,18.20
2022-09-15T08:10:56.897Z,18.16
2022-09-15T08:12:04.278Z,18.12
2022-09-15T08:13:11.477Z,18.12
2022-09-15T08:14:18.941Z,18.09
2022-09-15T08:15:26.222Z,18.07
2022-09-15T08:16:33.552Z,18.06
2022-09-15T08:17:40.228Z,18.03
2022-09-15T08:18:46.926Z,18.01
2022-09-15T08:19:53.971Z,17.98
2022-09-15T08:21:00.584Z,17.96
2022-09-15T08:22:07.431Z,17.94
2022-09-15T08:23:14.340Z,17.91
2022-09-15T08:24:23.812Z,17.90
2022-09-15T08:25:31.754Z,17.89
2022-09-15T08:26:39.608Z,17.87
2022-09-15T08:27:46.613Z,17.84
2022-09-15T08:28:52.595Z,17.82
2022-09-15T08:29:59.839Z,17.79
2022-09-15T08:31:08.585Z,17.79
2022-09-15T08:32:15.692Z,17.78
2022-09-15T08:33:22.164Z,17.76
2022-09-15T08:34:30.944Z,17.74
2022-09-15T08:35:37.472Z,17.73
2022-09-15T08:36:45.023Z,17.71
2022-09-15T08:37:53.755Z,17.68
2022-09-15T08:38:59.668Z,17.65
2022-09-15T08:40:07.085Z,17.64
2022-09-15T08:41:17.508Z,17.61
2022-09-15T08:42:27.335Z,17.59
2022-09-15T08:43:39.889Z,17.59
2022-09-15T08:44:53.012Z,17.58
2022-09-15T08:46:01.791Z,17.54
2022-09-15T08:47:33.509Z,17.52
2022-09-15T08:48:42.660Z,17.48
2022-09-15T08:50:10.780Z,17.44
2022-09-15T08:51:23.179Z,17.42
2022-09-15T08:52:51.814Z,17.39
2022-09-15T08:54:05.289Z,17.36
2022-09-15T08:55:36.033Z,17.32
2022-09-15T08:56:42.859Z,17.28
2022-09-15T08:57:49.096Z,17.26
2022-09-15T08:58:55.044Z,17.25
2022-09-15T09:00:02.090Z,17.24
2022-09-15T09:01:14.550Z,17.22
2022-09-15T09:02:59.225Z,17.19
2022-09-15T09:04:31.950Z,17.17
2022-09-15T09:06:22.667Z,17.16
2022-09-15T09:07:49.000Z,17.15
2022-09-15T09:09:25.618Z,17.13
2022-09-15T09:10:42.590Z,17.12
2022-09-15T09:12:20.273Z,17.10
2022-09-15T09:13:53.793Z,17.09
2022-09-15T09:15:23.788Z,17.09
2022-09-15T09:16:46.286Z,17.11
2022-09-15T09:18:19.002Z,17.10
2022-09-15T09:19:56.945Z,17.11
2022-09-15T09:21:21.341Z,17.10
2022-09-15T09:22:29.429Z,17.10
2022-09-15T09:23:39.653Z,17.10
2022-09-15T09:24:47.923Z,17.10
2022-09-15T09:25:54.236Z,17.11
2022-09-15T09:27:00.690Z,17.10
2022-09-15T09:28:08.378Z,17.09
2022-09-15T09:29:20.794Z,17.08
2022-09-15T09:30:28.369Z,17.07
2022-09-15T09:31:34.596Z,17.06
2022-09-15T09:33:01.969Z,17.08
2022-09-15T09:34:16.027Z,17.09
2022-09-15T09:35:45.669Z,17.12
2022-09-15T09:37:01.430Z,17.13
2022-09-15T09:38:09.109Z,17.14
2022-09-15T09:39:18.690Z,17.15
2022-09-15T09:40:25.033Z,17.17
2022-09-15T09:41:37.836Z,17.20
2022-09-15T09:42:43.936Z,17.23
2022-09-15T09:43:50.675Z,17.24
2022-09-15T09:44:57.260Z,17.25
2022-09-15T09:46:03.444Z,17.26
2022-09-15T09:47:09.553Z,17.31
2022-09-15T09:48:19.190Z,17.34
2022-09-15T09:49:25.516Z,17.38
2022-09-15T09:50:37.290Z,17.40
2022-09-15T09:52:00.583Z,17.42
2022-09-15T09:53:26.335Z,17.45
2022-09-15T09:54:33.837Z,17.48
2022-09-15T09:55:42.749Z,17.51
2022-09-15T09:56:50.665Z,17.54
2022-09-15T09:57:59.968Z,17.57
2022-09-15T09:59:06.564Z,17.60
2022-09-15T10:00:37.773Z,17.62
2022-09-15T10:01:43.755Z,17.65
2022-09-15T10:02:50.546Z,17.67
2022-09-15T10:04:19.824Z,17.71
2022-09-15T10:05:25.826Z,17.73
2022-09-15T10:06:31.666Z,17.75
2022-09-15T10:07:38.525Z,17.77
2022-09-15T10:08:58.621Z,17.78
2022-09-15T10:10:05.391Z,17.80
2022-09-15T10:11:15.190Z,17.82
2022-09-15T10:12:23.770Z,17.83
2022-09-15T10:13:29.685Z,17.86
2022-09-15T10:14:39.816Z,17.88
2022-09-15T10:15:46.782Z,17.89
2022-09-15T10:17:12.473Z,17.91
2022-09-15T10:18:37.107Z,17.92
2022-09-15T10:19:56.754Z,17.93
2022-09-15T10:21:03.893Z,17.95
2022-09-15T10:22:10.067Z,17.98
2022-09-15T10:23:19.275Z,17.98
2022-09-15T10:24:37.958Z,18.00
2022-09-15T10:25:58.535Z,18.00
2022-09-15T10:27:37.760Z,18.01
2022-09-15T10:28:44.012Z,18.01
2022-09-15T10:29:49.978Z,18.02
2022-09-15T10:31:07.024Z,18.01
2022-09-15T10:32:32.573Z,18.00
2022-09-15T10:33:51.888Z,18.01
2022-09-15T10:35:24.676Z,18.02
2022-09-15T10:36:31.639Z,18.03
2022-09-15T10:38:05.873Z,18.01
2022-09-15T10:39:18.860Z,17.99
2022-09-15T10:40:30.528Z,17.98
2022-09-15T10:41:42.226Z,17.97
2022-09-15T10:42:51.977Z,17.96
2022-09-15T10:44:16.205Z,17.94
2022-09-15T10:45:34.865Z,17.92
2022-09-15T10:46:41.618Z,17.90
2022-09-15T10:47:52.078Z,17.89
2022-09-15T10:48:58.567Z,17.88
2022-09-15T10:50:13.492Z,17.87
2022-09-15T10:51:30.104Z,17.84
2022-09-15T10:52:53.245Z,17.82
2022-09-15T10:54:23.914Z,17.80
2022-09-15T10:55:52.591Z,17.76
2022-09-15T10:57:23.850Z,17.73
2022-09-15T10:58:56.440Z,17.70
2022-09-15T11:00:07.311Z,17.66
2022-09-15T11:01:32.062Z,17.62
2022-09-15T11:03:16.095Z,17.59
2022-09-15T11:04:36.608Z,17.55
2022-09-15T11:06:20.096Z,17.51
2022-09-15T11:07:47.341Z,17.47
2022-09-15T11:09:12.031Z,17.43
2022-09-15T11:10:24.114Z,17.39
2022-09-15T11:11:46.060Z,17.35
2022-09-15T11:13:34.399Z,17.30
2022-09-15T11:14:54.843Z,17.26
2022-09-15T11:16:09.868Z,17.24
2022-09-15T11:17:37.636Z,17.22
2022-09-15T11:19:06.259Z,17.19
2022-09-15T11:20:23.208Z,17.18
2022-09-15T11:21:53.646Z,17.16
2022-09-15T11:23:30.139Z,17.14
2022-09-15T11:24:55.416Z,17.11
2022-09-15T11:26:16.148Z,17.10
2022-09-15T11:27:27.529Z,17.08
2022-09-15T11:28:48.263Z,17.07
2022-09-15T11:30:08.182Z,17.06
2022-09-15T11:31:27.757Z,17.06
2022-09-15T11:32:52.962Z,17.06
2022-09-15T11:34:16.254Z,17.05
2022-09-15T11:35:46.520Z,17.04
2022-09-15T11:36:58.198Z,17.03
2022-09-15T11:38:11.105Z,17.03
2022-09-15T11:39:27.039Z,17.03
2022-09-15T11:40:58.474Z,17.04
2022-09-15T11:42:19.928Z,17.05
2022-09-15T11:43:26.401Z,17.07
2022-09-15T11:44:46.073Z,17.09
2022-09-15T11:45:54.262Z,17.11
2022-09-15T11:47:29.820Z,17.13
2022-09-15T11:48:58.982Z,17.16
2022-09-15T11:50:09.341Z,17.20
2022-09-15T11:51:15.181Z,17.23
2022-09-15T11:52:36.234Z,17.26
2022-09-15T11:54:31.340Z,17.30
2022-09-15T11:55:49.615Z,17.36
2022-09-15T11:56:55.291Z,17.41
2022-09-15T11:58:48.505Z,17.45
2022-09-15T12:00:21.127Z,17.50
2022-09-15T12:01:31.658Z,17.55
2022-09-15T12:03:26.422Z,17.60
2022-09-15T12:04:34.535Z,17.65
2022-09-15T12:05:43.707Z,17.67
2022-09-15T12:08:18.059Z,17.72
2022-09-15T12:09:24.332Z,17.75
2022-09-15T12:10:49.978Z,17.76
2022-09-15T12:11:59.622Z,17.78
2022-09-15T12:13:05.636Z,17.79
2022-09-15T12:14:35.919Z,17.80
2022-09-15T12:15:41.707Z,17.81
2022-09-15T12:16:47.853Z,17.80
2022-09-15T12:18:34.268Z,17.80
2022-09-15T12:19:42.531Z,17.79
2022-09-15T12:21:11.797Z,17.79
2022-09-15T12:22:52.254Z,17.79
2022-09-15T12:24:34.846Z,17.78
2022-09-15T12:26:07.634Z,17.77
2022-09-15T12:27:20.868Z,17.76
2022-09-15T12:28:27.761Z,17.76
2022-09-15T12:29:42.142Z,17.77
2022-09-15T12:30:49.830Z,17.78
2022-09-15T12:32:23.030Z,17.79
2022-09-15T12:33:48.593Z,17.81
2022-09-15T12:35:34.578Z,17.81
2022-09-15T12:36:51.984Z,17.81
2022-09-15T12:37:58.892Z,17.79
2022-09-15T12:39:22.624Z,17.80
2022-09-15T12:40:34.354Z,17.81
2022-09-15T12:41:42.600Z,17.81
2022-09-15T12:42:49.000Z,17.82
2022-09-15T12:43:59.840Z,17.82
2022-09-15T12:45:06.956Z,17.82
2022-09-15T12:46:14.086Z,17.83
2022-09-15T12:47:29.622Z,17.85
2022-09-15T12:48:36.345Z,17.87
2022-09-15T12:49:44.225Z,17.88
2022-09-15T12:51:13.846Z,17.88
2022-09-15T12:52:20.728Z,17.89
2022-09-15T12:54:43.919Z,17.91
2022-09-15T12:55:51.432Z,17.91
2022-09-15T12:56:57.273Z,17.92
2022-09-15T12:58:19.068Z,17.93
2022-09-15T12:59:28.961Z,17.94
2022-09-15T13:01:00.591Z,17.95
2022-09-15T13:02:17.933Z,17.94
2022-09-15T13:03:50.501Z,17.94
2022-09-15T13:04:58.217Z,17.95
2022-09-15T13:06:25.749Z,17.95
2022-09-15T13:07:36.231Z,17.94
2022-09-15T13:08:50.273Z,17.92
2022-09-15T13:10:22.578Z,17.92
2022-09-15T13:11:39.732Z,17.93
2022-09-15T13:12:51.242Z,17.95
2022-09-15T13:14:29.168Z,17.96
2022-09-15T13:15:36.724Z,17.95
2022-09-15T13:16:50.494Z,17.95
2022-09-15T13:17:57.241Z,17.94
2022-09-15T13:19:32.384Z,17.95
2022-09-15T13:20:40.953Z,17.96
2022-09-15T13:22:13.450Z,17.96
2022-09-15T13:23:26.056Z,17.99
2022-09-15T13:24:45.087Z,18.00
2022-09-15T13:25:52.475Z,18.01
2022-09-15T13:26:59.633Z,18.04
2022-09-15T13:28:05.369Z,18.05
2022-09-15T13:29:15.054Z,18.05
2022-09-15T13:30:47.283Z,18.06
2022-09-15T13:32:00.542Z,18.04
2022-09-15T13:35:17.301Z,18.04
2022-09-15T13:38:03.899Z,18.07
2022-09-15T13:38:07.812Z,18.05
2022-09-15T13:39:47.092Z,18.04
2022-09-15T13:41:15.146Z,18.06
2022-09-15T13:42:45.755Z,18.06
2022-09-15T13:43:58.778Z,18.08
2022-09-15T13:45:17.533Z,18.10
2022-09-15T13:46:51.491Z,18.10
2022-09-15T13:48:21.348Z,18.09
2022-09-15T13:49:49.089Z,18.09
2022-09-15T13:51:01.837Z,18.11
2022-09-15T13:52:21.665Z,18.13
2022-09-15T13:53:47.220Z,18.14
2022-09-15T13:55:22.241Z,18.16
2022-09-15T13:56:32.863Z,18.18
2022-09-15T13:59:29.512Z,18.23
2022-09-15T14:00:56.854Z,18.24
2022-09-15T14:02:02.844Z,18.28
2022-09-15T14:03:18.500Z,18.30
2022-09-15T14:04:28.841Z,18.35
2022-09-15T14:05:36.531Z,18.40
2022-09-15T14:06:45.096Z,18.43
2022-09-15T14:08:01.614Z,18.46
2022-09-15T14:09:19.740Z,18.47
2022-09-15T14:10:30.669Z,18.50
2022-09-15T14:11:38.176Z,18.54
2022-09-15T14:12:44.921Z,18.57
2022-09-15T14:13:51.732Z,18.61
2022-09-15T14:14:59.370Z,18.65
2022-09-15T14:16:12.708Z,18.68
2022-09-15T14:17:27.715Z,18.72
2022-09-15T14:18:46.153Z,18.76
2022-09-15T14:19:54.996Z,18.77
2022-09-15T14:21:08.400Z,18.79
2022-09-15T14:22:32.695Z,18.82
2022-09-15T14:23:55.790Z,18.84
2022-09-15T14:25:20.057Z,18.85
2022-09-15T14:26:32.217Z,18.88
2022-09-15T14:27:49.489Z,18.91
2022-09-15T14:29:00.842Z,18.95
2022-09-15T14:30:09.252Z,18.97
2022-09-15T14:31:18.663Z,19.00
2022-09-15T14:32:27.985Z,19.03
2022-09-15T14:33:38.463Z,19.05
2022-09-15T14:34:45.011Z,19.08
2022-09-15T14:35:51.758Z,19.17
2022-09-15T14:37:08.009Z,19.35
2022-09-15T14:38:24.911Z,19.52
2022-09-15T14:39:34.325Z,19.63
2022-09-15T14:40:42.657Z,19.67
2022-09-15T14:41:49.863Z,19.72
2022-09-15T14:42:56.459Z,19.76
2022-09-15T14:44:02.920Z,19.83
2022-09-15T14:46:48.042Z,19.94
2022-09-15T14:48:02.125Z,20.01
2022-09-15T14:49:12.913Z,20.03
2022-09-15T14:50:22.930Z,20.07
2022-09-15T14:51:34.234Z,20.09
2022-09-15T14:52:45.987Z,20.08
2022-09-15T14:53:54.943Z,20.09
2022-09-15T14:55:03.150Z,20.15
2022-09-15T14:56:11.318Z,20.21
2022-09-15T14:57:18.528Z,20.24
2022-09-15T14:58:50.385Z,20.28
2022-09-15T15:00:00.653Z,20.34
2022-09-15T15:01:27.899Z,20.38
2022-09-15T15:02:35.737Z,20.46
2022-09-15T15:03:51.829Z,20.52
2022-09-15T15:05:14.917Z,20.60
2022-09-15T15:06:43.481Z,20.67
2022-09-15T15:07:56.176Z,20.70
2022-09-15T15:09:04.852Z,20.76
2022-09-15T15:10:37.959Z,20.81
2022-09-15T15:11:44.897Z,20.92
2022-09-15T15:12:54.729Z,21.20
2022-09-15T15:14:00.760Z,21.65
2022-09-15T15:15:07.878Z,22.03
2022-09-15T15:16:29.249Z,22.33
2022-09-15T15:17:44.914Z,22.60
2022-09-15T15:18:53.029Z,22.64
2022-09-15T15:20:04.240Z,22.62
2022-09-15T15:21:39.728Z,22.52
2022-09-15T15:22:46.582Z,22.40
2022-09-15T15:23:55.068Z,22.45
2022-09-15T15:25:01.621Z,22.41
2022-09-15T15:26:28.232Z,22.30
2022-09-15T15:27:35.909Z,22.19
2022-09-15T15:28:46.871Z,22.20
2022-09-15T15:29:54.305Z,22.13
2022-09-15T15:31:15.242Z,22.06
2022-09-15T15:32:26.111Z,21.98
2022-09-15T15:33:33.805Z,21.92
2022-09-15T15:34:41.310Z,21.97
2022-09-15T15:35:49.555Z,22.09
2022-09-15T15:37:03.912Z,22.24
2022-09-15T15:38:18.409Z,22.31
2022-09-15T15:39:27.069Z,22.22
2022-09-15T15:40:32.847Z,22.21
2022-09-15T15:41:42.967Z,22.32
2022-09-15T15:43:24.622Z,22.42
2022-09-15T15:44:31.236Z,22.63